Time;durP1;ratioP1;P1;durP2;ratioP2;P2;SDS_P1;SDS_P2;PMS_P1;PMS_P2;Temp;Humidity;BMP_temperature;BMP_pressure;BME280_temperature;BME280_humidity;BME280_pressure;Samples;Min_cycle;Max_cycle;Signal;HPM_P1;HPM_P2
2022/02/28 00:01:32;;;;;;;10.85;4.60;;;2.30;99.90;;;;;;5006569;28;20026;-73
2022/02/28 00:03:58;;;;;;;9.55;4.00;;;2.20;99.90;;;;;;5024681;28;20040;-74
2022/02/28 00:06:24;;;;;;;8.65;4.38;;;2.20;99.90;;;;;;5024327;28;20058;-75
2022/02/28 00:08:51;;;;;;;14.48;4.85;;;2.30;99.90;;;;;;5024705;28;20335;-73
2022/02/28 00:11:16;;;;;;;9.18;3.90;;;2.30;99.90;;;;;;5024645;28;20061;-73
2022/02/28 00:13:42;;;;;;;10.50;3.90;;;2.30;99.90;;;;;;5024551;28;20100;-72
2022/02/28 00:16:08;;;;;;;10.55;4.55;;;2.30;99.90;;;;;;5024416;28;20090;-73
2022/02/28 00:18:34;;;;;;;11.75;4.72;;;2.30;99.90;;;;;;5007051;28;20046;-73
2022/02/28 00:21:00;;;;;;;11.50;4.28;;;2.30;99.90;;;;;;5024256;28;20057;-72
2022/02/28 00:23:26;;;;;;;11.05;4.03;;;2.30;99.90;;;;;;5024806;28;20055;-72
2022/02/28 00:25:53;;;;;;;8.63;4.07;;;2.30;99.90;;;;;;5007031;28;20084;-73
2022/02/28 00:28:19;;;;;;;8.10;3.67;;;2.30;99.90;;;;;;5024208;28;20034;-74
2022/02/28 00:30:45;;;;;;;11.52;4.60;;;2.30;99.90;;;;;;5006996;28;20080;-73
2022/02/28 00:33:11;;;;;;;10.75;4.40;;;2.30;99.90;;;;;;5006774;28;20038;-73
2022/02/28 00:35:37;;;;;;;11.93;3.92;;;2.20;99.90;;;;;;5025855;28;20029;-71
2022/02/28 00:38:04;;;;;;;13.25;5.25;;;2.20;99.90;;;;;;5026886;28;20045;-75
2022/02/28 00:40:30;;;;;;;15.48;4.55;;;2.10;99.90;;;;;;5020995;28;20491;-71
2022/02/28 00:42:56;;;;;;;13.25;4.57;;;2.10;99.90;;;;;;5010056;28;20046;-73
2022/02/28 00:45:22;;;;;;;16.73;4.85;;;2.10;99.90;;;;;;5010357;28;20034;-74
2022/02/28 00:47:48;;;;;;;9.63;4.65;;;2.10;99.90;;;;;;5027814;28;20056;-72
2022/02/28 00:50:13;;;;;;;9.73;3.97;;;2.10;99.90;;;;;;5009793;28;20030;-72
2022/02/28 00:52:40;;;;;;;10.95;3.92;;;2.10;99.90;;;;;;5027612;28;20061;-73
2022/02/28 00:55:06;;;;;;;11.60;3.15;;;2.00;99.90;;;;;;5027750;28;20034;-72
2022/02/28 00:57:32;;;;;;;14.63;4.97;;;2.00;99.90;;;;;;5027237;28;20037;-72
2022/02/28 00:59:58;;;;;;;9.55;4.57;;;2.00;99.90;;;;;;5027679;28;20053;-73
2022/02/28 01:02:24;;;;;;;10.02;4.47;;;2.10;99.90;;;;;;5027051;28;20030;-73
2022/02/28 01:04:51;;;;;;;15.85;4.63;;;2.10;99.90;;;;;;5027452;28;20021;-73
2022/02/28 01:07:17;;;;;;;13.63;4.63;;;2.10;99.90;;;;;;5027299;28;20085;-72
2022/02/28 01:09:43;;;;;;;9.68;4.13;;;2.00;99.90;;;;;;5027063;28;20037;-72
2022/02/28 01:12:09;;;;;;;16.77;5.00;;;2.00;99.90;;;;;;5027172;28;20022;-73
2022/02/28 01:14:35;;;;;;;13.60;4.75;;;2.00;99.90;;;;;;5027338;28;20022;-72
2022/02/28 01:17:02;;;;;;;12.20;4.07;;;2.00;99.90;;;;;;5026896;28;20081;-73
2022/02/28 01:19:28;;;;;;;11.40;3.60;;;2.00;99.90;;;;;;5009710;28;20026;-73
2022/02/28 01:21:54;;;;;;;17.92;5.43;;;2.00;99.90;;;;;;5009430;28;20089;-73
2022/02/28 01:24:19;;;;;;;7.40;3.55;;;2.00;99.90;;;;;;5026839;28;20077;-72
2022/02/28 01:26:45;;;;;;;12.15;4.22;;;1.90;99.90;;;;;;5027102;28;20041;-71
2022/02/28 01:29:11;;;;;;;11.90;4.57;;;2.00;99.90;;;;;;5027195;28;20034;-71
2022/02/28 01:31:37;;;;;;;10.38;4.25;;;1.90;99.90;;;;;;5026531;28;20073;-74
2022/02/28 01:34:03;;;;;;;14.88;4.72;;;1.90;99.90;;;;;;5026993;28;20030;-73
2022/02/28 01:36:29;;;;;;;12.52;4.28;;;1.90;99.90;;;;;;5009082;28;20394;-71
2022/02/28 01:38:54;;;;;;;17.58;4.85;;;1.90;99.90;;;;;;5008730;28;20034;-74
2022/02/28 01:41:20;;;;;;;10.18;3.55;;;1.80;99.90;;;;;;5027096;28;20746;-72
2022/02/28 01:43:45;;;;;;;13.38;4.80;;;1.80;99.90;;;;;;5026747;28;20030;-72
2022/02/28 01:46:11;;;;;;;7.68;3.55;;;1.70;99.90;;;;;;5025542;28;20026;-72
2022/02/28 01:48:37;;;;;;;11.98;4.63;;;1.70;99.90;;;;;;5026490;28;20025;-72
2022/02/28 01:51:02;;;;;;;11.70;4.65;;;1.60;99.90;;;;;;5008736;28;20030;-73
2022/02/28 01:53:28;;;;;;;10.57;4.07;;;1.60;99.90;;;;;;5026116;28;20493;-72
2022/02/28 01:55:54;;;;;;;10.63;4.72;;;1.60;99.90;;;;;;5026738;28;20034;-74
2022/02/28 01:58:19;;;;;;;11.60;4.10;;;1.60;99.90;;;;;;5008650;28;20038;-74
2022/02/28 02:00:45;;;;;;;9.82;4.47;;;1.50;99.90;;;;;;5026365;28;20050;-72
2022/02/28 02:03:10;;;;;;;10.80;4.13;;;1.40;99.90;;;;;;5026414;28;20038;-73
2022/02/28 02:05:36;;;;;;;9.88;3.97;;;1.40;99.90;;;;;;5025766;28;20030;-72
2022/02/28 02:08:07;;;;;;;13.00;4.82;;;1.30;99.90;;;;;;5026203;28;20057;-73
2022/02/28 02:10:35;;;;;;;15.63;5.20;;;1.30;99.90;;;;;;5026075;28;20117;-71
2022/02/28 02:13:01;;;;;;;13.55;4.30;;;1.30;99.90;;;;;;5008180;28;20026;-70
2022/02/28 02:15:27;;;;;;;13.57;5.03;;;1.30;99.90;;;;;;5026209;28;20053;-74
2022/02/28 02:17:55;;;;;;;10.52;4.53;;;1.20;99.90;;;;;;5025557;28;20046;-73
2022/02/28 02:20:22;;;;;;;13.70;5.03;;;1.20;99.90;;;;;;5025607;28;20029;-74
2022/02/28 02:22:55;;;;;;;13.82;4.93;;;1.20;99.90;;;;;;5026052;28;20062;-73
2022/02/28 02:25:22;;;;;;;13.80;5.57;;;1.10;99.90;;;;;;5025550;28;20056;-74
2022/02/28 02:27:47;;;;;;;13.02;4.50;;;1.10;99.90;;;;;;5025546;28;20040;-73
2022/02/28 02:30:13;;;;;;;11.20;5.22;;;1.10;99.90;;;;;;5025180;28;20054;-71
2022/02/28 02:32:40;;;;;;;9.65;4.03;;;1.10;99.90;;;;;;5025490;28;20026;-71
2022/02/28 02:35:06;;;;;;;13.07;4.68;;;1.00;99.90;;;;;;5025674;28;20026;-73
2022/02/28 02:37:32;;;;;;;6.65;3.60;;;1.00;99.90;;;;;;5025714;28;20049;-72
2022/02/28 02:39:58;;;;;;;15.82;4.35;;;1.00;99.90;;;;;;5025424;28;20030;-74
2022/02/28 02:42:24;;;;;;;11.48;4.55;;;1.00;99.90;;;;;;5025773;28;20038;-72
2022/02/28 02:44:50;;;;;;;14.32;5.25;;;1.00;99.90;;;;;;5025953;28;20064;-72
2022/02/28 02:47:15;;;;;;;12.93;5.22;;;1.00;99.90;;;;;;5025303;28;20026;-72
2022/02/28 02:49:41;;;;;;;13.48;4.85;;;1.00;99.90;;;;;;5025585;28;20030;-70
2022/02/28 02:52:07;;;;;;;10.98;5.05;;;1.00;99.90;;;;;;5007915;28;20026;-72
2022/02/28 02:54:33;;;;;;;14.35;5.10;;;1.00;99.90;;;;;;5025245;28;20081;-70
2022/02/28 02:56:59;;;;;;;12.65;4.72;;;1.00;99.90;;;;;;5025430;28;20057;-71
2022/02/28 02:59:25;;;;;;;11.40;4.75;;;1.00;99.90;;;;;;5025097;28;20089;-73
2022/02/28 03:01:51;;;;;;;8.52;3.55;;;1.00;99.90;;;;;;5024403;28;20044;-73
2022/02/28 03:04:17;;;;;;;13.00;4.55;;;0.90;99.90;;;;;;5025404;28;20109;-71
2022/02/28 03:06:42;;;;;;;11.85;4.72;;;0.90;99.90;;;;;;5025051;28;20053;-72
2022/02/28 03:09:15;;;;;;;11.45;4.22;;;0.90;99.90;;;;;;5024824;28;20377;-72
2022/02/28 03:11:42;;;;;;;16.67;4.88;;;0.90;99.90;;;;;;5025283;28;20057;-72
2022/02/28 03:14:07;;;;;;;16.90;4.97;;;0.90;99.90;;;;;;5025111;28;20082;-73
2022/02/28 03:16:33;;;;;;;13.75;4.18;;;0.90;99.90;;;;;;5024917;28;20034;-72
2022/02/28 03:18:59;;;;;;;13.45;4.78;;;0.80;99.90;;;;;;5025060;28;20034;-72
2022/02/28 03:21:24;;;;;;;12.90;5.18;;;0.80;99.90;;;;;;5024289;28;20026;-73
2022/02/28 03:23:51;;;;;;;15.57;5.22;;;0.80;99.90;;;;;;5025078;28;20042;-72
2022/02/28 03:26:16;;;;;;;9.30;4.25;;;0.80;99.90;;;;;;5025316;28;20092;-72
2022/02/28 03:28:42;;;;;;;13.52;4.70;;;0.80;99.90;;;;;;5024730;28;20483;-72
2022/02/28 03:31:09;;;;;;;18.77;4.90;;;0.70;99.90;;;;;;5024811;28;20034;-72
2022/02/28 03:33:34;;;;;;;15.45;5.25;;;0.70;99.90;;;;;;5025166;28;20025;-72
2022/02/28 03:36:00;;;;;;;16.52;4.70;;;0.70;99.90;;;;;;5024635;28;20037;-71
2022/02/28 03:38:26;;;;;;;14.57;5.25;;;0.70;99.90;;;;;;5024858;28;20037;-72
2022/02/28 03:40:52;;;;;;;13.27;4.32;;;0.70;99.90;;;;;;5007659;28;20058;-72
2022/02/28 03:43:18;;;;;;;16.63;5.28;;;0.70;99.90;;;;;;5007433;28;20039;-72
2022/02/28 03:45:44;;;;;;;14.75;5.53;;;0.70;99.90;;;;;;5024787;28;20030;-73
2022/02/28 03:48:10;;;;;;;12.05;5.00;;;0.70;99.90;;;;;;5007323;28;20061;-72
2022/02/28 03:50:35;;;;;;;18.48;5.63;;;0.70;99.90;;;;;;5024462;28;20033;-71
2022/02/28 03:53:01;;;;;;;15.40;5.60;;;0.70;99.90;;;;;;5007067;28;20034;-74
2022/02/28 03:55:27;;;;;;;12.63;5.28;;;0.70;99.90;;;;;;5007153;28;20044;-72
2022/02/28 03:57:53;;;;;;;10.70;4.88;;;0.70;99.90;;;;;;5024568;28;20074;-75
2022/02/28 04:00:19;;;;;;;14.43;5.53;;;0.70;99.90;;;;;;5024925;28;20065;-73
2022/02/28 04:02:45;;;;;;;12.63;4.80;;;0.70;99.90;;;;;;5024838;28;20030;-72
2022/02/28 04:05:12;;;;;;;12.85;5.32;;;0.70;99.90;;;;;;5024306;28;20539;-73
2022/02/28 04:07:38;;;;;;;13.63;5.20;;;0.70;99.90;;;;;;5024632;28;20076;-72
2022/02/28 04:10:05;;;;;;;18.30;6.28;;;0.70;99.90;;;;;;5008154;28;20038;-72
2022/02/28 04:12:31;;;;;;;16.92;5.55;;;0.70;99.90;;;;;;5028149;28;20030;-72
2022/02/28 04:14:58;;;;;;;16.75;5.70;;;0.70;99.90;;;;;;5028692;28;20381;-73
2022/02/28 04:17:24;;;;;;;10.35;4.63;;;0.60;99.90;;;;;;5028162;28;20509;-72
2022/02/28 04:19:49;;;;;;;13.88;5.35;;;0.60;99.90;;;;;;5028540;28;20056;-71
2022/02/28 04:22:15;;;;;;;16.17;6.22;;;0.60;99.90;;;;;;5028312;28;20093;-71
2022/02/28 04:24:43;;;;;;;14.77;5.63;;;0.50;99.90;;;;;;5028093;28;20041;-72
2022/02/28 04:27:08;;;;;;;12.15;5.13;;;0.50;99.90;;;;;;5010432;28;20026;-70
2022/02/28 04:29:34;;;;;;;14.65;5.53;;;0.50;99.90;;;;;;5027482;28;20034;-72
2022/02/28 04:32:00;;;;;;;10.32;4.47;;;0.50;99.90;;;;;;5026996;28;20030;-73
2022/02/28 04:34:27;;;;;;;19.77;5.10;;;0.40;99.90;;;;;;5028242;28;20090;-72
2022/02/28 04:36:52;;;;;;;14.70;5.55;;;0.40;99.90;;;;;;5027706;28;20104;-71
2022/02/28 04:39:18;;;;;;;13.75;5.70;;;0.40;99.90;;;;;;5027762;28;20800;-71
2022/02/28 04:41:44;;;;;;;16.95;5.88;;;0.40;99.90;;;;;;5010216;28;20037;-72
2022/02/28 04:44:10;;;;;;;13.90;4.40;;;0.40;99.90;;;;;;5027861;28;20106;-72
2022/02/28 04:46:35;;;;;;;20.08;6.18;;;0.40;99.90;;;;;;5027324;28;20038;-73
2022/02/28 04:49:01;;;;;;;17.35;6.72;;;0.30;99.90;;;;;;5010125;28;20089;-72
2022/02/28 04:51:26;;;;;;;14.65;5.53;;;0.30;99.90;;;;;;5027611;28;20029;-72
2022/02/28 04:53:52;;;;;;;11.70;4.93;;;0.30;99.90;;;;;;5009975;28;20413;-71
2022/02/28 04:56:18;;;;;;;18.30;6.38;;;0.30;99.90;;;;;;5027707;28;20815;-72
2022/02/28 04:58:44;;;;;;;14.20;6.68;;;0.30;99.90;;;;;;5027388;28;20057;-72
2022/02/28 05:01:12;;;;;;;13.70;5.78;;;0.30;99.90;;;;;;5027395;28;20061;-70
2022/02/28 05:03:37;;;;;;;16.45;5.00;;;0.20;99.90;;;;;;5009926;28;20041;-71
2022/02/28 05:06:03;;;;;;;14.93;5.60;;;0.20;99.90;;;;;;5026638;28;20018;-71
2022/02/28 05:08:28;;;;;;;11.60;5.18;;;0.20;99.90;;;;;;5027484;28;20022;-72
2022/02/28 05:10:54;;;;;;;16.83;6.18;;;0.20;99.90;;;;;;5027501;28;20509;-73
2022/02/28 05:13:21;;;;;;;15.02;5.82;;;0.20;99.90;;;;;;5009324;28;20021;-73
2022/02/28 05:15:46;;;;;;;14.23;6.38;;;0.10;99.90;;;;;;5027233;28;20551;-72
2022/02/28 05:18:12;;;;;;;11.40;4.50;;;0.10;99.90;;;;;;5027214;28;20038;-70
2022/02/28 05:20:39;;;;;;;14.38;5.28;;;0.10;99.90;;;;;;5026519;28;20026;-72
2022/02/28 05:23:04;;;;;;;17.38;6.43;;;0.10;99.90;;;;;;5027201;28;20033;-70
2022/02/28 05:25:30;;;;;;;21.63;6.75;;;0.10;99.90;;;;;;5026919;28;20045;-71
2022/02/28 05:27:56;;;;;;;15.20;6.00;;;0.10;99.90;;;;;;5026709;28;20037;-71
2022/02/28 05:30:21;;;;;;;16.67;5.18;;;0.00;99.90;;;;;;5009710;28;20033;-73
2022/02/28 05:32:47;;;;;;;20.40;6.18;;;0.00;99.90;;;;;;5008504;28;20093;-70
2022/02/28 05:35:13;;;;;;;17.48;6.07;;;0.00;99.90;;;;;;5025749;28;20106;-71
2022/02/28 05:37:40;;;;;;;13.63;5.43;;;0.00;99.90;;;;;;5018932;28;20060;-71
2022/02/28 05:40:08;;;;;;;17.00;5.90;;;0.00;99.90;;;;;;5008810;28;20025;-70
2022/02/28 05:42:34;;;;;;;17.70;5.95;;;0.00;99.90;;;;;;5026638;28;20094;-70
2022/02/28 05:44:59;;;;;;;15.85;5.68;;;0.00;99.90;;;;;;5026799;28;20030;-70
2022/02/28 05:47:25;;;;;;;13.30;6.15;;;-0.10;99.90;;;;;;5026452;28;20076;-71
2022/02/28 05:49:51;;;;;;;14.95;6.05;;;-0.10;99.90;;;;;;5026744;28;20049;-72
2022/02/28 05:52:17;;;;;;;14.43;5.40;;;-0.10;99.90;;;;;;5026678;28;20037;-71
2022/02/28 05:54:43;;;;;;;17.70;6.57;;;-0.10;99.90;;;;;;5008586;28;20026;-69
2022/02/28 05:57:08;;;;;;;19.38;7.15;;;-0.10;99.90;;;;;;5026427;28;20130;-71
2022/02/28 05:59:34;;;;;;;13.82;5.28;;;-0.10;99.90;;;;;;5026538;28;20022;-69
2022/02/28 06:01:59;;;;;;;13.52;5.47;;;-0.10;99.90;;;;;;5025236;28;20030;-71
2022/02/28 06:04:25;;;;;;;18.25;6.57;;;-0.10;99.90;;;;;;5025861;28;20021;-69
2022/02/28 06:06:52;;;;;;;15.52;5.72;;;-0.20;99.90;;;;;;5025958;28;20057;-71
2022/02/28 06:09:17;;;;;;;21.70;6.75;;;-0.10;99.90;;;;;;5025817;28;20038;-70
2022/02/28 06:11:43;;;;;;;21.83;6.63;;;-0.10;99.90;;;;;;5026378;28;20029;-71
2022/02/28 06:14:12;;;;;;;21.70;7.50;;;-0.10;99.90;;;;;;5026134;28;20030;-70
2022/02/28 06:16:38;;;;;;;23.40;7.75;;;-0.10;99.90;;;;;;5025649;28;20037;-71
2022/02/28 06:19:04;;;;;;;18.95;7.07;;;-0.10;99.90;;;;;;5008535;28;20029;-69
2022/02/28 06:21:30;;;;;;;18.63;7.30;;;-0.10;99.90;;;;;;5000659;28;20035;-70
2022/02/28 06:23:55;;;;;;;19.48;6.10;;;-0.10;99.90;;;;;;5010106;28;20052;-70
2022/02/28 06:26:22;;;;;;;18.63;5.72;;;-0.10;99.90;;;;;;5013383;28;20061;-71
2022/02/28 06:28:47;;;;;;;17.35;6.55;;;-0.10;99.90;;;;;;5024652;28;20034;-69
2022/02/28 06:31:13;;;;;;;20.88;7.15;;;-0.10;99.90;;;;;;5019276;28;20032;-70
2022/02/28 06:33:38;;;;;;;21.85;6.38;;;-0.10;99.90;;;;;;5025093;28;20030;-69
2022/02/28 06:36:04;;;;;;;18.15;6.20;;;-0.10;99.90;;;;;;5025384;28;20026;-70
2022/02/28 06:38:30;;;;;;;23.63;6.65;;;-0.10;99.90;;;;;;5025433;28;20034;-70
2022/02/28 06:40:57;;;;;;;22.88;7.45;;;-0.10;99.90;;;;;;5025613;28;20118;-71
2022/02/28 06:43:24;;;;;;;19.92;7.07;;;-0.10;99.90;;;;;;5024351;28;20038;-69
2022/02/28 06:45:53;;;;;;;20.55;8.52;;;-0.10;99.90;;;;;;5021466;28;20056;-69
2022/02/28 06:48:19;;;;;;;14.93;5.70;;;0.00;99.90;;;;;;5010393;28;20045;-70
2022/02/28 06:50:45;;;;;;;17.63;6.97;;;0.00;99.90;;;;;;5000435;28;20037;-69
2022/02/28 06:53:18;;;;;;;20.60;6.22;;;0.10;99.90;;;;;;5024127;28;20049;-69
2022/02/28 06:55:46;;;;;;;14.02;6.22;;;0.20;99.90;;;;;;5015588;28;20030;-69
2022/02/28 06:58:12;;;;;;;18.58;6.80;;;0.20;99.90;;;;;;5015987;28;20038;-69
2022/02/28 07:00:38;;;;;;;17.55;7.35;;;0.30;99.90;;;;;;5022616;28;20097;-70
2022/02/28 07:03:03;;;;;;;15.35;5.88;;;0.40;99.90;;;;;;5024238;28;20022;-69
2022/02/28 07:05:29;;;;;;;23.45;6.65;;;0.50;99.90;;;;;;5024510;28;20059;-71
2022/02/28 07:07:56;;;;;;;32.10;8.43;;;0.60;99.90;;;;;;5024676;28;20516;-69
2022/02/28 07:10:23;;;;;;;23.42;7.90;;;0.70;99.90;;;;;;4996964;28;20039;-70
2022/02/28 07:12:49;;;;;;;17.38;6.63;;;0.80;99.90;;;;;;5020095;28;20033;-69
2022/02/28 07:15:15;;;;;;;17.17;6.88;;;0.90;99.90;;;;;;5022818;28;20061;-71
2022/02/28 07:17:41;;;;;;;21.00;7.00;;;1.00;99.90;;;;;;5023550;28;20515;-69
2022/02/28 07:20:07;;;;;;;16.70;6.38;;;1.10;99.90;;;;;;5022600;28;20030;-70
2022/02/28 07:22:33;;;;;;;19.88;7.22;;;1.20;99.90;;;;;;5013521;28;20022;-70
2022/02/28 07:24:58;;;;;;;29.75;5.88;;;1.20;99.90;;;;;;5022192;28;20032;-70
2022/02/28 07:27:24;;;;;;;18.25;6.60;;;1.30;99.90;;;;;;5023956;28;20030;-70
2022/02/28 07:29:50;;;;;;;17.02;7.07;;;1.40;99.90;;;;;;5019590;28;20026;-72
2022/02/28 07:32:15;;;;;;;33.72;7.15;;;1.40;99.90;;;;;;5012686;28;20033;-71
2022/02/28 07:34:41;;;;;;;16.50;6.55;;;1.50;99.90;;;;;;5023699;28;20045;-69
2022/02/28 07:37:07;;;;;;;17.23;6.88;;;1.60;99.90;;;;;;5024157;28;20041;-69
2022/02/28 07:39:33;;;;;;;18.55;6.63;;;1.70;99.90;;;;;;5024042;28;20026;-69
2022/02/28 07:42:00;;;;;;;12.95;5.10;;;1.90;99.90;;;;;;5024805;28;20109;-69
2022/02/28 07:44:27;;;;;;;18.95;6.82;;;2.20;99.90;;;;;;5023430;28;20026;-71
2022/02/28 07:46:54;;;;;;;18.13;6.75;;;2.50;99.90;;;;;;5010233;28;20030;-69
2022/02/28 07:49:20;;;;;;;21.17;7.00;;;2.80;99.90;;;;;;5027001;28;20030;-70
2022/02/28 07:51:46;;;;;;;19.50;7.40;;;3.00;99.90;;;;;;5028043;28;20033;-71
2022/02/28 07:54:11;;;;;;;18.60;6.47;;;3.20;99.90;;;;;;5027985;28;20030;-70
2022/02/28 07:56:38;;;;;;;16.05;7.32;;;3.40;99.90;;;;;;5021386;28;20045;-70
2022/02/28 07:59:04;;;;;;;11.35;5.45;;;3.60;99.90;;;;;;5007100;28;20026;-71
2022/02/28 08:01:30;;;;;;;19.75;6.72;;;3.80;99.90;;;;;;5002676;28;20037;-72
2022/02/28 08:03:59;;;;;;;14.02;5.30;;;4.00;99.90;;;;;;5028038;28;20022;-71
2022/02/28 08:06:29;;;;;;;18.80;7.47;;;4.20;99.90;;;;;;5027291;28;20056;-71
2022/02/28 08:08:55;;;;;;;10.15;5.78;;;4.30;99.90;;;;;;5026423;28;20052;-72
2022/02/28 08:11:20;;;;;;;16.23;5.90;;;4.50;99.90;;;;;;5021224;28;20046;-70
2022/02/28 08:13:46;;;;;;;16.65;6.32;;;4.60;99.90;;;;;;5027684;28;20117;-70
2022/02/28 08:16:11;;;;;;;19.20;6.95;;;4.70;99.90;;;;;;5005455;28;20022;-70
2022/02/28 08:18:38;;;;;;;14.90;6.43;;;4.80;99.90;;;;;;5008201;28;20037;-72
2022/02/28 08:21:03;;;;;;;21.05;7.70;;;4.70;99.90;;;;;;5021171;28;20046;-71
2022/02/28 08:23:31;;;;;;;19.58;5.47;;;4.70;99.90;;;;;;5018322;28;20030;-72
2022/02/28 08:25:57;;;;;;;28.42;7.63;;;4.90;99.90;;;;;;5016224;28;20034;-73
2022/02/28 08:28:24;;;;;;;14.77;6.60;;;5.00;99.90;;;;;;5000293;28;20030;-71
2022/02/28 08:30:49;;;;;;;15.70;6.57;;;5.20;99.90;;;;;;5024735;28;20020;-71
2022/02/28 08:33:15;;;;;;;14.10;6.32;;;5.20;99.90;;;;;;5021751;28;20053;-71
2022/02/28 08:35:41;;;;;;;19.42;5.85;;;5.30;99.90;;;;;;5008103;28;20032;-72
2022/02/28 08:38:06;;;;;;;17.15;6.13;;;5.30;99.90;;;;;;5002801;28;20041;-71
2022/02/28 08:40:32;;;;;;;20.05;6.13;;;5.40;99.90;;;;;;5032500;28;20021;-72
2022/02/28 08:42:57;;;;;;;16.02;6.97;;;5.50;99.90;;;;;;5023341;28;20090;-72
2022/02/28 08:45:25;;;;;;;19.48;6.97;;;5.60;99.90;;;;;;5027569;28;20029;-72
2022/02/28 08:47:52;;;;;;;14.15;6.45;;;5.70;99.90;;;;;;5023975;28;20030;-71
2022/02/28 08:50:18;;;;;;;20.92;6.88;;;5.80;99.90;;;;;;5024736;28;20068;-71
2022/02/28 08:52:44;;;;;;;22.08;6.28;;;5.90;99.90;;;;;;5025204;28;20034;-72
2022/02/28 08:55:10;;;;;;;17.88;6.43;;;5.90;99.90;;;;;;5026415;28;20029;-71
2022/02/28 08:57:36;;;;;;;15.93;5.80;;;6.10;99.90;;;;;;5008546;28;20041;-71
2022/02/28 09:00:08;;;;;;;13.35;5.47;;;6.30;99.90;;;;;;5027613;28;20022;-72
2022/02/28 09:02:35;;;;;;;15.18;5.68;;;6.30;99.90;;;;;;5025466;28;20443;-72
2022/02/28 09:05:01;;;;;;;25.70;6.47;;;6.30;99.90;;;;;;5023915;28;20026;-72
2022/02/28 09:07:32;;;;;;;13.82;5.72;;;6.50;99.90;;;;;;5007708;28;20076;-73
2022/02/28 09:09:58;;;;;;;20.45;6.82;;;6.70;99.90;;;;;;5026333;28;20030;-71
2022/02/28 09:12:25;;;;;;;16.58;6.15;;;6.80;99.90;;;;;;5026503;28;20093;-72
2022/02/28 09:14:52;;;;;;;16.48;5.85;;;6.90;99.90;;;;;;5027542;28;20105;-72
2022/02/28 09:17:18;;;;;;;14.65;6.13;;;7.00;99.90;;;;;;5025893;28;20525;-71
2022/02/28 09:19:44;;;;;;;17.25;6.20;;;7.10;99.90;;;;;;5026895;28;20030;-72
2022/02/28 09:22:09;;;;;;;13.75;5.65;;;7.10;99.90;;;;;;5009048;28;20037;-72
2022/02/28 09:24:35;;;;;;;14.63;5.88;;;7.20;99.90;;;;;;5026474;28;20754;-72
2022/02/28 09:27:03;;;;;;;14.48;4.90;;;7.10;99.90;;;;;;5023069;28;20018;-73
2022/02/28 09:29:31;;;;;;;13.95;5.40;;;7.00;99.90;;;;;;5019926;28;20036;-74
2022/02/28 09:31:58;;;;;;;14.45;5.50;;;7.00;99.90;;;;;;5007758;28;20026;-71
2022/02/28 09:34:25;;;;;;;17.42;6.57;;;7.10;99.90;;;;;;5015355;28;20045;-71
2022/02/28 09:36:54;;;;;;;13.32;5.68;;;7.30;99.90;;;;;;5021064;28;20034;-72
2022/02/28 09:39:26;;;;;;;11.13;5.55;;;7.50;99.90;;;;;;4994377;28;20038;-73
2022/02/28 09:41:54;;;;;;;17.05;7.00;;;7.60;99.90;;;;;;5008564;28;20026;-72
2022/02/28 09:44:27;;;;;;;10.90;5.43;;;7.70;99.90;;;;;;5025005;28;20106;-73
2022/02/28 09:46:56;;;;;;;17.10;6.00;;;7.50;99.90;;;;;;5026054;28;20033;-71
2022/02/28 09:49:23;;;;;;;18.27;4.63;;;7.50;99.90;;;;;;5026328;28;20118;-73
2022/02/28 09:51:48;;;;;;;20.40;7.00;;;7.60;99.90;;;;;;5026108;28;20037;-73
2022/02/28 09:54:14;;;;;;;15.98;6.60;;;7.50;99.90;;;;;;5026365;28;20029;-71
2022/02/28 09:56:39;;;;;;;15.38;6.55;;;7.50;99.90;;;;;;5026347;28;20041;-72
2022/02/28 09:59:05;;;;;;;16.42;6.50;;;7.70;99.90;;;;;;5025243;28;20060;-72
2022/02/28 10:01:31;;;;;;;15.05;6.05;;;7.80;99.90;;;;;;5024529;28;20093;-73
2022/02/28 10:03:57;;;;;;;17.60;6.10;;;8.00;99.90;;;;;;5022757;28;20026;-73
2022/02/28 10:06:25;;;;;;;17.63;5.30;;;8.10;99.90;;;;;;5007796;28;20053;-72
2022/02/28 10:08:59;;;;;;;14.43;5.43;;;8.20;99.90;;;;;;5023155;28;20026;-73
2022/02/28 10:11:39;;;;;;;16.65;6.30;;;8.30;99.90;;;;;;5024489;28;20037;-73
2022/02/28 10:14:07;;;;;;;16.40;5.32;;;8.40;99.90;;;;;;5025430;28;20056;-71
2022/02/28 10:16:44;;;;;;;16.08;6.65;;;8.60;99.90;;;;;;5024721;28;20121;-72
2022/02/28 10:19:13;;;;;;;20.10;7.50;;;8.90;99.90;;;;;;5005661;28;20027;-74
2022/02/28 10:21:47;;;;;;;14.38;5.75;;;9.10;99.90;;;;;;5009136;28;21371;-73
2022/02/28 10:24:25;;;;;;;14.93;5.47;;;9.40;99.90;;;;;;5020175;28;20069;-73
2022/02/28 10:27:02;;;;;;;15.98;6.10;;;9.60;99.90;;;;;;5014453;28;20540;-73
2022/02/28 10:29:32;;;;;;;11.65;5.78;;;9.60;99.90;;;;;;5008560;28;20061;-73
2022/02/28 10:32:03;;;;;;;17.95;5.80;;;9.70;99.90;;;;;;5011589;28;20030;-72
2022/02/28 10:34:30;;;;;;;13.40;5.47;;;9.80;99.90;;;;;;5013791;28;20117;-73
2022/02/28 10:36:59;;;;;;;18.10;6.63;;;9.80;99.90;;;;;;5022184;28;20045;-72
2022/02/28 10:39:27;;;;;;;12.77;5.57;;;9.80;99.90;;;;;;5019259;28;20470;-74
2022/02/28 10:42:02;;;;;;;11.55;5.43;;;9.90;99.90;;;;;;5006753;28;20053;-73
2022/02/28 10:44:31;;;;;;;12.43;6.22;;;10.10;99.90;;;;;;5012481;28;20037;-75
2022/02/28 10:47:02;;;;;;;13.57;6.20;;;10.30;99.90;;;;;;5012576;28;20034;-72
2022/02/28 10:49:30;;;;;;;14.73;5.63;;;10.50;99.90;;;;;;5009864;28;20030;-72
2022/02/28 10:52:08;;;;;;;13.55;5.57;;;10.60;99.90;;;;;;4993809;28;20585;-73
2022/02/28 10:54:41;;;;;;;11.48;4.97;;;10.80;99.90;;;;;;5006800;28;20073;-73
2022/02/28 10:57:19;;;;;;;13.10;5.82;;;10.90;99.90;;;;;;5024843;28;20037;-72
2022/02/28 10:59:56;;;;;;;10.20;4.75;;;11.10;99.90;;;;;;5016004;28;20038;-73
2022/02/28 11:02:34;;;;;;;13.55;4.85;;;11.30;99.90;;;;;;5020204;28;20018;-75
2022/02/28 11:05:08;;;;;;;12.98;5.80;;;11.30;99.90;;;;;;5020834;28;20072;-73
2022/02/28 11:07:43;;;;;;;13.52;5.45;;;11.40;99.90;;;;;;5020403;28;20061;-71
2022/02/28 11:10:10;;;;;;;17.58;6.50;;;11.70;99.90;;;;;;5019763;28;20034;-72
2022/02/28 11:12:36;;;;;;;21.20;6.38;;;11.80;99.90;;;;;;5024252;28;20034;-72
2022/02/28 11:15:05;;;;;;;11.07;5.85;;;12.00;99.90;;;;;;5024392;28;20034;-72
2022/02/28 11:17:34;;;;;;;15.55;5.30;;;12.30;99.90;;;;;;5012332;28;20498;-74
2022/02/28 11:20:06;;;;;;;12.80;5.72;;;12.20;99.90;;;;;;5019170;28;20026;-72
2022/02/28 11:22:31;;;;;;;10.95;5.38;;;12.10;99.90;;;;;;5014359;28;20030;-71
2022/02/28 11:24:58;;;;;;;14.50;6.32;;;12.20;99.90;;;;;;5023530;28;20158;-71
2022/02/28 11:27:26;;;;;;;12.45;5.47;;;12.50;99.90;;;;;;5022859;28;20057;-72
2022/02/28 11:30:00;;;;;;;17.27;4.97;;;12.80;99.90;;;;;;5023978;28;20034;-73
2022/02/28 11:32:27;;;;;;;11.93;5.65;;;13.10;99.90;;;;;;5019510;28;20034;-74
2022/02/28 11:35:15;;;;;;;13.00;5.38;;;13.30;99.90;;;;;;5024497;28;20030;-73
2022/02/28 11:37:40;;;;;;;12.30;5.05;;;13.30;99.90;;;;;;5005679;28;20045;-72
2022/02/28 11:40:06;;;;;;;15.00;6.45;;;13.30;99.90;;;;;;5023114;28;20038;-72
2022/02/28 11:43:12;;;;;;;12.60;5.47;;;13.30;99.90;;;;;;5018841;28;20082;-70
2022/02/28 11:46:05;;;;;;;14.77;5.80;;;13.50;99.90;;;;;;4985947;28;20117;-71
2022/02/28 11:48:33;;;;;;;10.95;5.68;;;13.90;99.90;;;;;;5010770;28;20081;-71
2022/02/28 11:51:08;;;;;;;15.77;6.05;;;14.30;99.90;;;;;;5023344;28;20030;-72
2022/02/28 11:53:44;;;;;;;12.65;5.38;;;14.60;99.90;;;;;;5020144;28;20042;-73
2022/02/28 11:56:16;;;;;;;9.48;4.50;;;14.80;99.90;;;;;;5018220;28;20037;-71
2022/02/28 11:58:56;;;;;;;12.20;5.50;;;15.00;99.90;;;;;;5011188;28;20042;-72
2022/02/28 12:01:28;;;;;;;11.77;5.40;;;15.00;99.90;;;;;;5014208;28;20462;-72
2022/02/28 12:04:18;;;;;;;15.63;5.35;;;15.20;99.90;;;;;;5030451;28;20030;-75
2022/02/28 12:07:02;;;;;;;13.00;5.30;;;15.30;99.90;;;;;;5015627;28;20050;-74
2022/02/28 12:09:33;;;;;;;11.50;5.43;;;15.30;99.90;;;;;;5018991;28;20134;-73
2022/02/28 12:12:25;;;;;;;11.23;4.97;;;15.30;99.90;;;;;;5014077;28;20030;-73
2022/02/28 12:14:57;;;;;;;10.52;5.05;;;15.40;99.90;;;;;;5015568;28;20036;-71
2022/02/28 12:17:40;;;;;;;16.25;5.20;;;15.40;99.90;;;;;;5023029;28;20092;-77
2022/02/28 12:20:18;;;;;;;13.15;3.58;;;15.50;99.90;;;;;;5001120;28;20419;-72
2022/02/28 12:23:05;;;;;;;9.52;4.85;;;15.40;99.90;;;;;;5000929;28;20042;-74
2022/02/28 12:25:36;;;;;;;12.68;4.47;;;15.30;99.90;;;;;;5001564;28;20065;-74
2022/02/28 12:28:28;;;;;;;9.02;4.50;;;15.20;99.90;;;;;;5003066;28;20050;-71
2022/02/28 12:31:00;;;;;;;9.77;3.92;;;15.30;99.90;;;;;;5011769;28;20176;-74
2022/02/28 12:33:35;;;;;;;10.10;4.32;;;15.40;99.90;;;;;;5001720;28;20117;-74
2022/02/28 12:36:15;;;;;;;11.23;4.53;;;15.40;99.90;;;;;;5026503;28;20090;-72
2022/02/28 12:39:04;;;;;;;8.20;4.28;;;15.40;99.90;;;;;;5026693;28;20061;-71
2022/02/28 12:41:33;;;;;;;10.02;4.32;;;15.60;99.90;;;;;;5025462;28;20022;-72
2022/02/28 12:44:02;;;;;;;9.52;4.60;;;15.70;99.90;;;;;;5026666;28;20030;-72
2022/02/28 12:46:38;;;;;;;8.82;5.03;;;15.60;99.90;;;;;;5026649;28;20026;-71
2022/02/28 12:49:06;;;;;;;10.35;4.70;;;15.70;99.90;;;;;;5026366;28;20097;-73